This is the latest recevied weather packets stored in our database for station/object MeshWX-1. If no packets are shown the sender has not sent any weather packets the latest 10 day(s).
| Time | Temp. | Humidity | Pressure | Rain* | Wind** | Luminosity | Snow |
|---|---|---|---|---|---|---|---|
| 1787782582 | 23.33° C | 63% | 999.1 hPa | - | - | - | - |
| 1787782281 | 23.33° C | 63% | 999.1 hPa | - | - | - | - |
| 1787781070 | 24.44° C | 60% | 999.1 hPa | - | - | - | - |
| 1787780602 | 24.44° C | 60% | 999.1 hPa | - | - | - | - |
| 1787780337 | 24.44° C | 60% | 999.1 hPa | - | - | - | - |
| 1787779090 | 23.89° C | 58% | 998.9 hPa | - | - | - | - |
| 1787778682 | 23.89° C | 58% | 998.9 hPa | - | - | - | - |
| 1787778465 | 23.89° C | 58% | 998.9 hPa | - | - | - | - |
| 1787777109 | 25° C | 57% | 998.8 hPa | - | - | - | - |
| 1787776761 | 25° C | 57% | 998.8 hPa | - | - | - | - |
| 1787776702 | 25° C | 57% | 998.8 hPa | - | - | - | - |
| 1787776539 | 25° C | 57% | 998.8 hPa | - | - | - | - |
| 1787775129 | 25.56° C | 52% | 998.6 hPa | - | - | - | - |
| 1787774722 | 25.56° C | 52% | 998.6 hPa | - | - | - | - |
| 1787774576 | 25.56° C | 52% | 998.6 hPa | - | - | - | - |
| 1787773089 | 26.67° C | 48% | 998.3 hPa | - | - | - | - |
| 1787772834 | 26.67° C | 48% | 998.3 hPa | - | - | - | - |
| 1787772741 | 26.67° C | 48% | 998.3 hPa | - | - | - | - |
| 1787772582 | 26.67° C | 48% | 998.3 hPa | - | - | - | - |
| 1787771049 | 26.67° C | 46% | 998.2 hPa | - | - | - | - |
| 1787770762 | 26.67° C | 46% | 998.2 hPa | - | - | - | - |
| 1787770652 | 26.67° C | 46% | 998.2 hPa | - | - | - | - |
| 1787769069 | 26.67° C | 43% | 998 hPa | - | - | - | - |
| 1787768909 | 26.67° C | 43% | 998 hPa | - | - | - | - |
| 1787768781 | 26.67° C | 43% | 998 hPa | - | - | - | - |
* Rain since midnight (hover to see other rain measurements)
** Current wind speed in m/s (hover to see current wind gust speed)